createdAt,value
2023-01-22T01:43:35.814Z,99.44
2023-01-22T02:55:29.031Z,100.00
2023-01-22T03:00:21.085Z,100.00
2023-01-22T03:05:13.703Z,100.00
2023-01-22T03:10:05.898Z,100.00
2023-01-22T03:15:15.988Z,100.00
2023-01-22T03:20:27.445Z,100.00
2023-01-22T03:25:19.115Z,100.00
2023-01-22T03:30:11.821Z,99.74
2023-01-22T03:35:03.713Z,97.85
2023-01-22T03:39:57.240Z,95.75
2023-01-22T03:44:48.893Z,94.43
2023-01-22T03:49:40.560Z,95.83
2023-01-22T03:54:32.242Z,94.66
2023-01-22T03:59:23.918Z,93.83
2023-01-22T04:04:15.599Z,92.78
2023-01-22T04:09:07.639Z,94.43
2023-01-22T04:13:59.325Z,92.87
2023-01-22T04:18:51.063Z,92.34
2023-01-22T04:23:42.761Z,93.23
2023-01-22T04:28:34.422Z,94.26
2023-01-22T04:33:26.153Z,93.57
2023-01-22T04:38:17.864Z,93.71
2023-01-22T04:43:10.560Z,93.42
2023-01-22T04:48:02.601Z,92.28
2023-01-22T04:52:56.724Z,91.54
2023-01-22T04:57:48.995Z,92.75
2023-01-22T05:02:43.871Z,93.09
2023-01-22T05:07:40.284Z,91.87
2023-01-22T05:53:28.363Z,94.85
2023-01-22T06:03:27.823Z,96.63
2023-01-22T06:08:21.911Z,96.23
2023-01-22T06:13:14.687Z,97.88
2023-01-22T06:18:08.343Z,98.87
2023-01-22T06:23:01.133Z,99.31
2023-01-22T06:27:53.372Z,100.00
2023-01-22T06:37:55.591Z,100.00
2023-01-22T06:48:01.364Z,100.00
2023-01-22T06:52:55.697Z,100.00
2023-01-22T07:08:00.270Z,100.00
2023-01-22T07:12:56.553Z,100.00
2023-01-22T07:17:59.113Z,100.00
2023-01-22T07:22:55.898Z,100.00
2023-01-22T07:27:49.473Z,100.00
2023-01-22T07:37:59.441Z,100.00
2023-01-22T07:42:52.739Z,100.00
2023-01-22T07:53:10.037Z,97.96
2023-01-22T08:03:24.901Z,95.32
2023-01-22T08:08:25.358Z,95.81
2023-01-22T08:23:31.871Z,94.43
2023-01-22T08:28:31.260Z,93.78
2023-01-22T08:33:32.588Z,94.69
2023-01-22T08:38:27.884Z,94.59
2023-01-22T08:43:19.853Z,93.88
2023-01-22T08:53:18.723Z,91.05
2023-01-22T08:58:10.787Z,90.95
2023-01-22T09:03:09.953Z,89.81
2023-01-22T09:08:02.350Z,88.68
2023-01-22T09:12:55.774Z,90.75
2023-01-22T09:17:48.760Z,90.17
2023-01-22T09:53:54.622Z,86.97
2023-01-22T10:09:20.643Z,87.99
2023-01-22T10:14:23.598Z,86.34
2023-01-22T10:19:31.374Z,87.32
2023-01-22T10:24:23.606Z,87.38
2023-01-22T10:45:17.438Z,88.37
2023-01-22T11:05:53.180Z,86.72
2023-01-22T11:10:58.320Z,86.89
2023-01-22T11:27:45.624Z,84.66
2023-01-22T11:32:56.517Z,84.36
2023-01-22T11:54:24.377Z,82.54
2023-01-22T11:59:37.260Z,81.69
2023-01-22T12:10:27.027Z,82.64
2023-01-22T12:15:47.730Z,80.97
2023-01-22T12:42:17.964Z,80.77
2023-01-22T13:08:25.049Z,77.51
2023-01-22T15:17:38.091Z,78.26
2023-01-22T15:22:30.217Z,78.56
2023-01-22T15:27:26.120Z,78.93
2023-01-22T15:32:20.100Z,79.19
2023-01-22T15:37:23.495Z,78.91
2023-01-22T15:42:26.157Z,79.41
2023-01-22T15:47:18.520Z,79.76
2023-01-22T15:52:11.314Z,80.57
2023-01-22T16:02:13.272Z,81.57
2023-01-22T16:07:07.377Z,81.84
2023-01-22T16:17:16.311Z,83.45
2023-01-22T16:27:14.001Z,83.71
2023-01-22T16:42:19.572Z,83.62
2023-01-22T17:12:45.961Z,80.80
2023-01-22T17:17:38.771Z,79.39
2023-01-22T17:37:54.558Z,80.96
2023-01-22T17:47:52.208Z,81.98
2023-01-22T17:52:44.686Z,82.35
2023-01-22T17:57:49.379Z,82.57
2023-01-22T18:02:41.310Z,82.97
2023-01-22T18:17:45.583Z,82.99
2023-01-22T18:22:42.309Z,83.30
2023-01-22T18:27:35.026Z,83.75
2023-01-22T18:32:28.230Z,82.11
2023-01-22T18:37:21.346Z,83.12
2023-01-22T18:42:13.288Z,82.71
2023-01-22T18:47:07.765Z,82.41
2023-01-22T18:52:02.024Z,81.59
2023-01-22T18:56:54.738Z,81.89
2023-01-22T19:02:00.400Z,81.87
2023-01-22T19:06:57.368Z,81.53
2023-01-22T19:11:52.962Z,81.48
2023-01-22T19:16:49.428Z,81.60
2023-01-22T19:21:46.903Z,82.20
2023-01-22T19:31:58.879Z,82.69
2023-01-22T19:37:06.144Z,82.80
2023-01-22T19:52:15.609Z,83.25
2023-01-22T19:57:08.434Z,83.73
2023-01-22T20:17:20.014Z,85.48
2023-01-22T20:22:12.010Z,84.13
2023-01-22T20:47:30.656Z,84.94
2023-01-22T20:52:26.352Z,85.19
2023-01-22T20:57:20.712Z,86.55
2023-01-22T21:02:12.735Z,87.70
2023-01-22T21:17:21.335Z,88.22
2023-01-22T21:22:13.237Z,89.13
2023-01-22T21:27:07.021Z,89.63
2023-01-22T21:32:00.820Z,89.26
2023-01-22T21:42:19.477Z,89.73
2023-01-22T21:47:11.912Z,89.57
2023-01-22T21:52:09.480Z,89.72
2023-01-22T21:57:02.725Z,89.39
2023-01-22T22:01:58.535Z,89.39
2023-01-22T22:06:50.756Z,89.26
2023-01-22T22:11:44.669Z,89.22
2023-01-22T22:16:37.415Z,90.35
2023-01-22T22:21:30.198Z,90.38
2023-01-22T22:26:22.628Z,90.98
2023-01-22T22:31:16.848Z,91.64
2023-01-22T22:36:12.357Z,91.65
2023-01-22T22:41:18.357Z,93.04
2023-01-22T22:46:23.158Z,93.29
2023-01-22T22:51:26.110Z,93.43
2023-01-22T22:56:19.820Z,92.71
2023-01-22T23:01:17.018Z,93.06
2023-01-22T23:06:16.579Z,93.13
2023-01-22T23:11:13.177Z,92.29
2023-01-22T23:16:11.100Z,92.13
2023-01-22T23:21:16.740Z,92.83
2023-01-22T23:26:25.370Z,93.24
2023-01-22T23:31:17.677Z,93.77
2023-01-22T23:36:15.053Z,94.82
2023-01-22T23:41:16.508Z,95.29
2023-01-22T23:46:13.482Z,95.92
2023-01-22T23:51:09.483Z,96.52
2023-01-22T23:56:02.907Z,95.58
